createdAt,value
2023-10-10T05:29:57.926Z,98645.47
2023-10-10T05:32:24.416Z,98641.56
2023-10-10T05:34:50.806Z,98647.31
2023-10-10T05:37:17.237Z,98636.41
2023-10-10T05:39:43.562Z,98644.22
2023-10-10T05:42:09.933Z,98644.22
2023-10-10T05:44:36.457Z,98649.13
2023-10-10T05:47:02.851Z,98649.53
2023-10-10T05:49:31.775Z,98651.81
2023-10-10T05:51:58.575Z,98651.16
2023-10-10T05:54:25.097Z,98656.47
2023-10-10T05:56:51.430Z,98660.75
2023-10-10T05:59:17.794Z,98654.81
2023-10-10T06:01:44.187Z,98661.97
2023-10-10T06:04:10.561Z,98667.28
2023-10-10T06:06:37.912Z,98673.22
2023-10-10T06:09:05.215Z,98660.06
2023-10-10T06:11:31.677Z,98665.59
2023-10-10T06:13:58.129Z,98677.28
2023-10-10T06:16:24.532Z,98667.63
2023-10-10T06:18:50.907Z,98679.13
2023-10-10T06:21:17.629Z,98676.03
2023-10-10T06:23:44.620Z,98677.44
2023-10-10T06:26:11.688Z,98675.97
2023-10-10T06:28:38.173Z,98676.41
2023-10-10T06:31:04.936Z,98677.81
2023-10-10T06:33:31.363Z,98675.09
2023-10-10T06:36:08.299Z,98678.34
2023-10-10T06:38:34.742Z,98681.00
2023-10-10T06:41:01.112Z,98683.56
2023-10-10T06:43:27.502Z,98683.69
2023-10-10T06:45:53.975Z,98684.84
2023-10-10T06:48:20.417Z,98687.06
2023-10-10T06:50:46.829Z,98682.38
2023-10-10T06:53:13.325Z,98680.47
2023-10-10T06:55:39.671Z,98678.13
2023-10-10T06:58:06.142Z,98683.81
2023-10-10T07:00:33.151Z,98689.03
2023-10-10T07:03:00.136Z,98689.34
2023-10-10T07:05:26.802Z,98682.66
2023-10-10T07:07:53.975Z,98690.41
2023-10-10T07:10:20.304Z,98687.84
2023-10-10T07:12:46.624Z,98691.06
2023-10-10T07:15:13.097Z,98698.00
2023-10-10T07:17:39.544Z,98702.00
2023-10-10T07:20:06.433Z,98707.44
2023-10-10T07:22:34.575Z,98694.50
2023-10-10T07:25:04.958Z,98700.75
2023-10-10T07:27:31.506Z,98695.53
2023-10-10T07:29:58.770Z,98705.81
2023-10-10T07:32:25.222Z,98704.28
2023-10-10T07:34:51.596Z,98707.28
2023-10-10T07:37:21.435Z,98709.78
2023-10-10T07:39:47.775Z,98699.66
2023-10-10T07:42:14.119Z,98703.97
2023-10-10T07:44:40.489Z,98704.59
2023-10-10T07:47:07.013Z,98707.28
2023-10-10T07:49:33.474Z,98705.53
2023-10-10T07:51:59.819Z,98714.44
2023-10-10T07:54:26.170Z,98709.28
2023-10-10T07:56:52.511Z,98703.69
2023-10-10T07:59:18.989Z,98705.84
2023-10-10T08:01:45.476Z,98702.44
2023-10-10T08:04:12.758Z,98707.06
2023-10-10T08:06:40.519Z,98712.50
2023-10-10T08:09:06.963Z,98706.59
2023-10-10T08:11:33.349Z,98713.53
2023-10-10T08:13:59.736Z,98707.53
2023-10-10T08:16:26.126Z,98705.75
2023-10-10T08:18:52.619Z,98705.59
2023-10-10T08:21:19.395Z,98712.00
2023-10-10T08:23:45.800Z,98706.19
2023-10-10T08:26:12.642Z,98714.44
2023-10-10T08:28:38.982Z,98709.22
2023-10-10T08:31:05.412Z,98710.19
2023-10-10T08:33:31.884Z,98713.03
2023-10-10T08:35:58.352Z,98708.84
2023-10-10T08:38:24.804Z,98707.06
2023-10-10T08:40:53.520Z,98704.47
2023-10-10T08:43:20.279Z,98700.38
2023-10-10T08:45:47.604Z,98699.19
2023-10-10T08:48:14.458Z,98697.44
2023-10-10T08:50:42.289Z,98702.69
2023-10-10T08:53:13.206Z,98699.34
2023-10-10T08:55:40.453Z,98691.09
2023-10-10T08:58:08.375Z,98694.47
2023-10-10T09:00:36.460Z,98692.44
2023-10-10T09:03:03.574Z,98693.88
2023-10-10T09:05:30.205Z,98692.34
2023-10-10T09:07:57.674Z,98704.56
2023-10-10T09:10:27.223Z,98704.91
2023-10-10T09:12:53.778Z,98701.97
2023-10-10T09:15:20.657Z,98697.75
2023-10-10T09:17:47.799Z,98690.53
2023-10-10T09:20:26.809Z,98696.06
2023-10-10T09:22:53.490Z,98692.38
2023-10-10T09:25:20.786Z,98694.91
2023-10-10T09:27:56.917Z,98695.72
2023-10-10T09:30:23.395Z,98683.59
2023-10-10T09:32:49.835Z,98687.69
2023-10-10T09:35:16.353Z,98690.69
2023-10-10T09:37:43.026Z,98688.03
2023-10-10T09:40:12.605Z,98685.06
2023-10-10T09:42:45.456Z,98682.09
2023-10-10T09:45:18.775Z,98676.97
2023-10-10T09:47:45.393Z,98674.03
2023-10-10T09:50:12.620Z,98675.41
2023-10-10T09:52:39.400Z,98669.72
2023-10-10T09:55:07.715Z,98666.22
2023-10-10T09:57:40.157Z,98679.22
2023-10-10T10:00:23.814Z,98676.78
2023-10-10T10:02:53.690Z,98679.75
2023-10-10T10:05:20.474Z,98670.78
2023-10-10T10:08:11.926Z,98674.88
2023-10-10T10:10:42.854Z,98672.69
2023-10-10T10:13:37.813Z,98672.69
2023-10-10T10:16:17.099Z,98667.25
2023-10-10T10:18:43.847Z,98673.72
2023-10-10T10:21:12.209Z,98682.09
2023-10-10T10:23:38.641Z,98680.53
2023-10-10T10:26:05.806Z,98677.53
2023-10-10T10:28:35.867Z,98676.19
2023-10-10T10:31:13.003Z,98672.63
2023-10-10T10:33:39.412Z,98675.31
2023-10-10T10:36:06.690Z,98666.59
2023-10-10T10:38:33.857Z,98659.44
2023-10-10T10:41:01.396Z,98664.88
2023-10-10T10:43:27.794Z,98659.41
2023-10-10T10:45:54.150Z,98662.59
2023-10-10T10:48:30.385Z,98657.94
2023-10-10T10:51:16.096Z,98662.53
2023-10-10T10:53:42.470Z,98664.38
2023-10-10T10:56:08.805Z,98657.00
2023-10-10T10:58:35.602Z,98660.22
2023-10-10T11:01:04.491Z,98661.56
2023-10-10T11:03:38.633Z,98649.53
2023-10-10T11:06:07.165Z,98649.19
2023-10-10T11:08:46.604Z,98649.41
2023-10-10T11:11:25.372Z,98646.34
2023-10-10T11:13:52.774Z,98646.16
2023-10-10T11:16:19.934Z,98636.28
2023-10-10T11:18:46.511Z,98630.84
2023-10-10T11:21:13.006Z,98631.41
2023-10-10T11:23:39.777Z,98616.75
2023-10-10T11:26:06.382Z,98618.06
2023-10-10T11:28:32.789Z,98619.59
2023-10-10T11:31:03.309Z,98613.22
2023-10-10T11:33:36.384Z,98612.66
2023-10-10T11:36:21.679Z,98602.56
2023-10-10T11:38:48.047Z,98589.50
2023-10-10T11:41:14.559Z,98591.78
2023-10-10T11:44:04.415Z,98590.56
2023-10-10T11:46:31.171Z,98593.47
2023-10-10T11:48:57.571Z,98595.84
2023-10-10T11:51:34.053Z,98582.34
2023-10-10T11:54:00.564Z,98581.22
2023-10-10T11:56:26.920Z,98582.44
2023-10-10T11:58:53.327Z,98591.94
2023-10-10T12:01:19.790Z,98578.41
2023-10-10T12:03:46.365Z,98574.19
2023-10-10T12:06:14.793Z,98580.84
2023-10-10T12:08:46.018Z,98578.63
2023-10-10T12:11:12.493Z,98572.28
2023-10-10T12:13:39.767Z,98574.47
2023-10-10T12:16:07.291Z,98578.63
2023-10-10T12:18:34.769Z,98579.28
2023-10-10T12:21:04.209Z,98568.72
2023-10-10T12:23:31.652Z,98563.28
2023-10-10T12:25:59.141Z,98562.56
2023-10-10T12:28:25.455Z,98550.75
2023-10-10T12:30:51.806Z,98556.81
2023-10-10T12:33:18.336Z,98550.75
2023-10-10T12:35:45.033Z,98548.03
2023-10-10T12:38:11.413Z,98549.97
2023-10-10T12:40:37.770Z,98539.88
2023-10-10T12:43:04.391Z,98541.84
2023-10-10T12:45:30.946Z,98544.38
2023-10-10T12:47:57.440Z,98543.16
2023-10-10T12:50:23.920Z,98534.34
2023-10-10T12:52:50.286Z,98537.28
2023-10-10T12:55:16.669Z,98522.22
2023-10-10T12:57:43.005Z,98525.38
2023-10-10T13:00:09.961Z,98524.44
2023-10-10T13:02:36.328Z,98530.09
2023-10-10T13:05:02.797Z,98523.34
2023-10-10T13:07:29.175Z,98519.69
2023-10-10T13:09:55.630Z,98523.53
2023-10-10T13:12:21.980Z,98521.63
2023-10-10T13:14:48.336Z,98506.34
2023-10-10T13:17:14.783Z,98503.03
2023-10-10T13:19:41.341Z,98505.94
2023-10-10T13:22:07.682Z,98507.06
2023-10-10T13:24:34.386Z,98511.91
2023-10-10T13:27:00.780Z,98506.66
2023-10-10T13:29:27.203Z,98504.66
2023-10-10T13:31:53.566Z,98509.22
2023-10-10T13:34:19.976Z,98500.41
2023-10-10T13:36:46.359Z,98503.13
2023-10-10T13:39:12.666Z,98501.53
2023-10-10T13:41:39.118Z,98502.34
2023-10-10T13:44:05.570Z,98510.75
2023-10-10T13:46:33.671Z,98507.72
2023-10-10T13:49:00.301Z,98502.25
2023-10-10T13:51:26.659Z,98503.56
2023-10-10T13:53:53.843Z,98498.91
2023-10-10T13:56:21.455Z,98501.88
2023-10-10T13:58:47.992Z,98502.44
2023-10-10T14:01:15.379Z,98497.28
2023-10-10T14:03:43.305Z,98494.56
2023-10-10T14:06:09.903Z,98496.78
2023-10-10T14:08:36.313Z,98494.66
2023-10-10T14:11:02.722Z,98494.66
2023-10-10T14:13:29.961Z,98491.63
2023-10-10T14:15:57.188Z,98490.59
2023-10-10T14:18:26.205Z,98493.03
2023-10-10T14:20:53.133Z,98493.03
2023-10-10T14:23:23.921Z,98487.38
2023-10-10T14:25:50.273Z,98491.22
2023-10-10T14:28:20.267Z,98491.00
2023-10-10T14:30:47.138Z,98485.94
2023-10-10T14:33:13.585Z,98480.69
2023-10-10T14:35:40.216Z,98486.63
2023-10-10T14:38:06.772Z,98490.19
2023-10-10T14:40:34.751Z,98482.28
2023-10-10T14:43:01.418Z,98488.03
2023-10-10T14:45:27.785Z,98486.31
2023-10-10T14:47:54.147Z,98493.16
2023-10-10T14:50:20.901Z,98499.81
2023-10-10T14:52:47.418Z,98495.50
2023-10-10T14:55:14.730Z,98492.75
2023-10-10T14:57:41.058Z,98489.88
2023-10-10T15:00:08.198Z,98490.25
2023-10-10T15:02:34.660Z,98495.59
2023-10-10T15:05:01.124Z,98487.75
2023-10-10T15:07:27.448Z,98483.00
2023-10-10T15:09:53.828Z,98486.31
2023-10-10T15:12:20.147Z,98481.75
2023-10-10T15:14:46.525Z,98480.66
2023-10-10T15:17:13.129Z,98481.75
2023-10-10T15:19:39.544Z,98479.03
2023-10-10T15:22:05.985Z,98481.25
2023-10-10T15:24:32.340Z,98483.44
2023-10-10T15:26:59.376Z,98489.47
2023-10-10T15:29:25.836Z,98487.34
2023-10-10T15:31:52.264Z,98492.50
2023-10-10T15:34:18.919Z,98493.59
2023-10-10T15:36:45.650Z,98492.00
2023-10-10T15:39:12.474Z,98497.44
2023-10-10T15:41:39.837Z,98498.34
2023-10-10T15:44:06.548Z,98494.78
2023-10-10T15:46:34.775Z,98492.38
2023-10-10T15:49:02.542Z,98500.63
2023-10-10T15:51:30.255Z,98495.81
2023-10-10T15:53:57.123Z,98498.88
2023-10-10T15:56:23.666Z,98499.53
2023-10-10T15:58:51.214Z,98501.56
2023-10-10T16:01:20.496Z,98506.34
2023-10-10T16:03:47.017Z,98502.94
2023-10-10T16:06:13.562Z,98498.50
2023-10-10T16:08:39.928Z,98501.38
2023-10-10T16:11:06.551Z,98499.06
2023-10-10T16:13:33.614Z,98507.91
2023-10-10T16:16:00.064Z,98509.47
2023-10-10T16:18:26.538Z,98512.03
2023-10-10T16:20:52.943Z,98514.31
2023-10-10T16:23:19.513Z,98513.56
2023-10-10T16:25:45.832Z,98517.19
2023-10-10T16:28:12.352Z,98517.03
2023-10-10T16:30:38.712Z,98519.84
2023-10-10T16:33:05.563Z,98511.22
2023-10-10T16:35:31.958Z,98522.66
2023-10-10T16:37:58.442Z,98519.19
2023-10-10T16:40:24.891Z,98516.81
2023-10-10T16:42:51.199Z,98511.69
2023-10-10T16:45:17.638Z,98524.38
2023-10-10T16:47:44.057Z,98528.97
2023-10-10T16:50:10.842Z,98524.59
2023-10-10T16:52:39.231Z,98526.44
2023-10-10T16:55:07.894Z,98525.03
2023-10-10T16:57:34.384Z,98522.25
2023-10-10T17:00:00.753Z,98528.94
2023-10-10T17:02:27.212Z,98531.34
2023-10-10T17:04:54.086Z,98524.22
2023-10-10T17:12:37.137Z,98528.78
2023-10-10T17:59:46.878Z,98560.25
2023-10-10T18:02:13.394Z,98561.97
2023-10-10T18:04:39.841Z,98565.84
2023-10-10T18:07:06.357Z,98567.31
2023-10-10T18:09:33.558Z,98567.13
2023-10-10T18:11:59.977Z,98557.72
2023-10-10T18:14:26.523Z,98563.91
2023-10-10T18:16:53.034Z,98566.19
2023-10-10T18:19:19.977Z,98569.81
2023-10-10T18:21:46.613Z,98567.63
2023-10-10T18:24:15.054Z,98573.91
2023-10-10T18:26:41.632Z,98571.84
2023-10-10T18:29:08.902Z,98569.31
2023-10-10T18:31:37.931Z,98572.81
2023-10-10T18:34:04.293Z,98568.63
2023-10-10T18:36:31.129Z,98572.59
2023-10-10T18:38:58.635Z,98576.00
2023-10-10T18:41:25.316Z,98568.63
2023-10-10T18:43:53.065Z,98568.75
2023-10-10T18:46:19.569Z,98575.06
2023-10-10T18:48:46.140Z,98571.69
2023-10-10T18:51:13.424Z,98572.81
2023-10-10T18:53:40.323Z,98564.19
2023-10-10T18:56:07.145Z,98572.53
2023-10-10T18:58:33.480Z,98571.84
2023-10-10T19:01:00.043Z,98572.78
2023-10-10T19:03:26.585Z,98561.88
2023-10-10T19:05:53.174Z,98564.44
2023-10-10T19:08:20.350Z,98559.56
2023-10-10T19:10:49.990Z,98555.94
2023-10-10T19:13:16.564Z,98553.72
2023-10-10T19:15:42.913Z,98561.84
2023-10-10T19:18:09.360Z,98559.03
2023-10-10T19:20:36.444Z,98558.09
2023-10-10T19:23:03.096Z,98556.91
2023-10-10T19:25:29.877Z,98557.38
2023-10-10T19:27:58.400Z,98554.31
2023-10-10T19:30:26.999Z,98553.56
2023-10-10T19:32:54.259Z,98554.28
2023-10-10T19:35:22.070Z,98556.22
2023-10-10T19:37:51.329Z,98568.44
2023-10-10T19:40:18.890Z,98563.31
2023-10-10T19:42:46.472Z,98562.94
2023-10-10T19:45:24.658Z,98563.59
2023-10-10T19:47:53.412Z,98560.19
2023-10-10T19:50:20.401Z,98558.78
2023-10-10T19:52:50.399Z,98558.44
2023-10-10T19:55:22.044Z,98561.34
2023-10-10T19:57:49.054Z,98562.56
2023-10-10T20:00:16.340Z,98566.28
2023-10-10T20:02:42.915Z,98561.00
2023-10-10T20:05:09.983Z,98563.53
2023-10-10T20:07:37.024Z,98563.16
2023-10-10T20:10:04.284Z,98559.06
2023-10-10T20:12:31.038Z,98552.53
2023-10-10T20:14:57.513Z,98559.34
2023-10-10T20:17:23.857Z,98553.63
2023-10-10T20:19:50.226Z,98552.22
2023-10-10T20:22:16.666Z,98541.59
2023-10-10T20:24:43.062Z,98550.88
2023-10-10T20:27:09.437Z,98553.19
2023-10-10T20:29:35.948Z,98550.94
2023-10-10T20:32:02.293Z,98557.53
2023-10-10T20:34:28.653Z,98551.59
2023-10-10T20:36:54.986Z,98560.66
2023-10-10T20:39:21.722Z,98551.81
2023-10-10T20:41:48.077Z,98545.88
2023-10-10T20:44:14.816Z,98551.44
2023-10-10T20:46:41.849Z,98548.19
2023-10-10T20:49:08.401Z,98548.63
2023-10-10T20:51:35.418Z,98550.09
2023-10-10T20:54:02.056Z,98544.56
2023-10-10T20:56:28.432Z,98554.47
2023-10-10T20:58:54.852Z,98551.19
2023-10-10T21:01:21.292Z,98547.09
2023-10-10T21:03:48.188Z,98546.28
2023-10-10T21:06:15.266Z,98546.28
2023-10-10T21:08:42.089Z,98550.59
2023-10-10T21:11:09.852Z,98549.78
2023-10-10T21:13:37.004Z,98553.47
2023-10-10T21:16:14.223Z,98550.22
2023-10-10T21:18:42.146Z,98551.47
2023-10-10T21:21:08.556Z,98547.38
2023-10-10T21:23:35.915Z,98552.72
2023-10-10T21:26:02.237Z,98552.97
2023-10-10T21:28:28.761Z,98551.91
2023-10-10T21:30:55.181Z,98547.59
2023-10-10T21:33:21.848Z,98547.00
2023-10-10T21:35:48.302Z,98551.97
2023-10-10T21:38:14.689Z,98542.50
2023-10-10T21:40:41.227Z,98547.03
2023-10-10T21:43:07.930Z,98556.09
2023-10-10T21:45:34.686Z,98548.97
2023-10-10T21:48:01.263Z,98544.06
2023-10-10T21:53:08.888Z,98545.16
